sensor_id;sensor_type;location;lat;lon;timestamp;pressure;altitude;pressure_sealevel;temperature;humidity
36964;BME280;22878;48.616;35.326;2022-12-26T00:01:38;101567.99;;;3.79;100.00
36964;BME280;22878;48.616;35.326;2022-12-26T00:04:07;101571.81;;;3.80;100.00
36964;BME280;22878;48.616;35.326;2022-12-26T00:06:34;101577.33;;;3.79;100.00
36964;BME280;22878;48.616;35.326;2022-12-26T00:09:02;101574.53;;;3.76;100.00
36964;BME280;22878;48.616;35.326;2022-12-26T00:11:29;101574.53;;;3.76;100.00
36964;BME280;22878;48.616;35.326;2022-12-26T00:16:28;101580.06;;;3.75;100.00
36964;BME280;22878;48.616;35.326;2022-12-26T00:18:54;101581.09;;;3.74;100.00
36964;BME280;22878;48.616;35.326;2022-12-26T00:21:21;101586.80;;;3.71;100.00
36964;BME280;22878;48.616;35.326;2022-12-26T00:23:53;101588.62;;;3.70;100.00
36964;BME280;22878;48.616;35.326;2022-12-26T00:30:00;101588.75;;;3.73;100.00
36964;BME280;22878;48.616;35.326;2022-12-26T00:32:27;101587.93;;;3.72;100.00
36964;BME280;22878;48.616;35.326;2022-12-26T00:34:54;101590.80;;;3.71;100.00
36964;BME280;22878;48.616;35.326;2022-12-26T00:37:20;101599.48;;;3.69;100.00
36964;BME280;22878;48.616;35.326;2022-12-26T00:39:46;101604.13;;;3.71;100.00
36964;BME280;22878;48.616;35.326;2022-12-26T00:42:13;101602.90;;;3.73;100.00
36964;BME280;22878;48.616;35.326;2022-12-26T00:44:39;101602.90;;;3.73;100.00
36964;BME280;22878;48.616;35.326;2022-12-26T00:47:05;101605.66;;;3.80;100.00
36964;BME280;22878;48.616;35.326;2022-12-26T00:49:31;101614.20;;;3.75;100.00
36964;BME280;22878;48.616;35.326;2022-12-26T00:51:58;101617.00;;;3.78;100.00
36964;BME280;22878;48.616;35.326;2022-12-26T00:54:24;101611.47;;;3.79;100.00
36964;BME280;22878;48.616;35.326;2022-12-26T00:56:50;101608.57;;;3.74;100.00
36964;BME280;22878;48.616;35.326;2022-12-26T00:59:16;101612.80;;;3.79;100.00
36964;BME280;22878;48.616;35.326;2022-12-26T01:01:43;101609.66;;;3.80;100.00
36964;BME280;22878;48.616;35.326;2022-12-26T01:04:09;101606.78;;;3.81;100.00
36964;BME280;22878;48.616;35.326;2022-12-26T01:06:35;101618.13;;;3.79;100.00
36964;BME280;22878;48.616;35.326;2022-12-26T01:09:01;101613.01;;;3.78;100.00
36964;BME280;22878;48.616;35.326;2022-12-26T01:11:28;101618.91;;;3.84;100.00
36964;BME280;22878;48.616;35.326;2022-12-26T01:14:15;101618.36;;;3.89;100.00
36964;BME280;22878;48.616;35.326;2022-12-26T01:16:44;101613.84;;;3.89;100.00
36964;BME280;22878;48.616;35.326;2022-12-26T01:19:11;101616.00;;;3.90;100.00
36964;BME280;22878;48.616;35.326;2022-12-26T01:21:38;101606.84;;;3.88;100.00
36964;BME280;22878;48.616;35.326;2022-12-26T01:24:07;101610.66;;;3.90;100.00
36964;BME280;22878;48.616;35.326;2022-12-26T01:26:33;101612.51;;;3.89;100.00
36964;BME280;22878;48.616;35.326;2022-12-26T01:28:59;101604.81;;;3.90;100.00
36964;BME280;22878;48.616;35.326;2022-12-26T01:31:25;101613.90;;;3.96;100.00
36964;BME280;22878;48.616;35.326;2022-12-26T01:33:52;101613.08;;;3.95;100.00
36964;BME280;22878;48.616;35.326;2022-12-26T01:36:18;101611.67;;;3.99;100.00
36964;BME280;22878;48.616;35.326;2022-12-26T01:38:44;101619.16;;;4.00;100.00
36964;BME280;22878;48.616;35.326;2022-12-26T01:41:11;101609.20;;;3.98;100.00
36964;BME280;22878;48.616;35.326;2022-12-26T01:43:55;101612.00;;;4.00;100.00
36964;BME280;22878;48.616;35.326;2022-12-26T01:46:26;101614.67;;;4.00;100.00
36964;BME280;22878;48.616;35.326;2022-12-26T01:48:56;101611.80;;;4.02;100.00
36964;BME280;22878;48.616;35.326;2022-12-26T01:51:27;101613.00;;;3.99;100.00
36964;BME280;22878;48.616;35.326;2022-12-26T01:53:58;101619.75;;;3.95;100.00
36964;BME280;22878;48.616;35.326;2022-12-26T01:56:34;101615.92;;;3.94;100.00
36964;BME280;22878;48.616;35.326;2022-12-26T01:59:05;101622.72;;;3.96;100.00
36964;BME280;22878;48.616;35.326;2022-12-26T02:01:35;101623.36;;;3.98;100.00
36964;BME280;22878;48.616;35.326;2022-12-26T02:04:06;101616.56;;;3.96;100.00
36964;BME280;22878;48.616;35.326;2022-12-26T02:06:54;101622.92;;;3.95;100.00
36964;BME280;22878;48.616;35.326;2022-12-26T02:09:20;101629.21;;;3.98;100.00
36964;BME280;22878;48.616;35.326;2022-12-26T02:11:50;101623.80;;;4.02;100.00
36964;BME280;22878;48.616;35.326;2022-12-26T02:14:19;101626.52;;;4.08;100.00
36964;BME280;22878;48.616;35.326;2022-12-26T02:16:45;101626.52;;;4.08;100.00
36964;BME280;22878;48.616;35.326;2022-12-26T02:19:27;101621.56;;;4.05;100.00
36964;BME280;22878;48.616;35.326;2022-12-26T02:31:20;101632.70;;;3.98;100.00
36964;BME280;22878;48.616;35.326;2022-12-26T02:34:20;101638.11;;;3.94;100.00
36964;BME280;22878;48.616;35.326;2022-12-26T02:54:19;101639.64;;;3.67;100.00
36964;BME280;22878;48.616;35.326;2022-12-26T02:57:16;101620.13;;;3.71;100.00
36964;BME280;22878;48.616;35.326;2022-12-26T03:00:07;101625.36;;;3.64;100.00
36964;BME280;22878;48.616;35.326;2022-12-26T03:03:15;101616.99;;;3.56;100.00
36964;BME280;22878;48.616;35.326;2022-12-26T03:06:20;101618.56;;;3.51;100.00
36964;BME280;22878;48.616;35.326;2022-12-26T03:09:10;101622.56;;;3.51;100.00
36964;BME280;22878;48.616;35.326;2022-12-26T03:12:22;101628.34;;;3.54;100.00
36964;BME280;22878;48.616;35.326;2022-12-26T03:15:12;101629.42;;;3.60;100.00
36964;BME280;22878;48.616;35.326;2022-12-26T03:17:43;101625.94;;;3.59;100.00
36964;BME280;22878;48.616;35.326;2022-12-26T03:20:17;101631.65;;;3.67;100.00
36964;BME280;22878;48.616;35.326;2022-12-26T03:22:57;101634.00;;;3.66;100.00
36964;BME280;22878;48.616;35.326;2022-12-26T03:28:29;101636.84;;;3.64;100.00
36964;BME280;22878;48.616;35.326;2022-12-26T03:30:58;101645.05;;;3.63;100.00
36964;BME280;22878;48.616;35.326;2022-12-26T03:33:28;101645.05;;;3.63;100.00
36964;BME280;22878;48.616;35.326;2022-12-26T03:39:37;101649.86;;;3.63;100.00
36964;BME280;22878;48.616;35.326;2022-12-26T03:45:41;101653.62;;;3.69;100.00
36964;BME280;22878;48.616;35.326;2022-12-26T03:51:58;101651.27;;;3.70;100.00
36964;BME280;22878;48.616;35.326;2022-12-26T04:01:20;101664.30;;;3.80;100.00
36964;BME280;22878;48.616;35.326;2022-12-26T04:04:09;101666.33;;;3.78;100.00
36964;BME280;22878;48.616;35.326;2022-12-26T04:06:58;101664.86;;;3.75;100.00
36964;BME280;22878;48.616;35.326;2022-12-26T04:12:53;101671.21;;;3.85;100.00
36964;BME280;22878;48.616;35.326;2022-12-26T04:15:57;101676.44;;;3.93;100.00
36964;BME280;22878;48.616;35.326;2022-12-26T04:18:56;101679.75;;;3.95;100.00
36964;BME280;22878;48.616;35.326;2022-12-26T04:24:49;101680.77;;;3.94;100.00
36964;BME280;22878;48.616;35.326;2022-12-26T04:27:43;101678.03;;;3.98;100.00
36964;BME280;22878;48.616;35.326;2022-12-26T04:30:30;101683.67;;;3.99;100.00
36964;BME280;22878;48.616;35.326;2022-12-26T04:33:25;101680.49;;;4.00;100.00
36964;BME280;22878;48.616;35.326;2022-12-26T04:39:17;101692.62;;;4.02;100.00
36964;BME280;22878;48.616;35.326;2022-12-26T04:42:03;101685.01;;;3.99;100.00
36964;BME280;22878;48.616;35.326;2022-12-26T04:44:49;101685.73;;;3.97;100.00
36964;BME280;22878;48.616;35.326;2022-12-26T04:47:16;101685.01;;;3.99;100.00
36964;BME280;22878;48.616;35.326;2022-12-26T04:49:43;101690.17;;;4.01;100.00
36964;BME280;22878;48.616;35.326;2022-12-26T04:52:29;101685.01;;;3.99;100.00
36964;BME280;22878;48.616;35.326;2022-12-26T04:58:38;101687.54;;;3.97;100.00
36964;BME280;22878;48.616;35.326;2022-12-26T05:01:04;101687.06;;;3.97;100.00
36964;BME280;22878;48.616;35.326;2022-12-26T05:03:48;101690.85;;;3.99;100.00
36964;BME280;22878;48.616;35.326;2022-12-26T05:06:33;101691.16;;;4.00;100.00
36964;BME280;22878;48.616;35.326;2022-12-26T05:09:18;101696.02;;;4.00;100.00
36964;BME280;22878;48.616;35.326;2022-12-26T05:12:01;101699.56;;;4.07;100.00
36964;BME280;22878;48.616;35.326;2022-12-26T05:14:28;101698.50;;;4.13;100.00
36964;BME280;22878;48.616;35.326;2022-12-26T05:19:43;101700.70;;;4.20;100.00
36964;BME280;22878;48.616;35.326;2022-12-26T05:22:30;101708.28;;;4.27;100.00
36964;BME280;22878;48.616;35.326;2022-12-26T05:25:18;101707.01;;;4.33;100.00
36964;BME280;22878;48.616;35.326;2022-12-26T05:28:07;101705.42;;;4.39;100.00
36964;BME280;22878;48.616;35.326;2022-12-26T05:30:54;101711.33;;;4.45;100.00
36964;BME280;22878;48.616;35.326;2022-12-26T05:33:20;101712.97;;;4.46;100.00
36964;BME280;22878;48.616;35.326;2022-12-26T05:36:05;101715.59;;;4.50;100.00
36964;BME280;22878;48.616;35.326;2022-12-26T05:51:25;101728.29;;;4.48;100.00
36964;BME280;22878;48.616;35.326;2022-12-26T05:53:52;101733.94;;;4.49;100.00
36964;BME280;22878;48.616;35.326;2022-12-26T05:56:18;101735.61;;;4.50;100.00
36964;BME280;22878;48.616;35.326;2022-12-26T05:58:45;101741.56;;;4.52;100.00
36964;BME280;22878;48.616;35.326;2022-12-26T06:01:17;101743.41;;;4.52;100.00
36964;BME280;22878;48.616;35.326;2022-12-26T06:03:49;101743.92;;;4.51;100.00
36964;BME280;22878;48.616;35.326;2022-12-26T06:09:58;101745.69;;;4.55;100.00
36964;BME280;22878;48.616;35.326;2022-12-26T06:12:24;101751.67;;;4.57;100.00
36964;BME280;22878;48.616;35.326;2022-12-26T06:14:50;101754.78;;;4.61;100.00
36964;BME280;22878;48.616;35.326;2022-12-26T06:20:57;101758.09;;;4.63;100.00
36964;BME280;22878;48.616;35.326;2022-12-26T06:23:23;101765.41;;;4.65;100.00
36964;BME280;22878;48.616;35.326;2022-12-26T06:25:54;101768.56;;;4.64;100.00
36964;BME280;22878;48.616;35.326;2022-12-26T06:28:22;101766.15;;;4.59;100.00
36964;BME280;22878;48.616;35.326;2022-12-26T06:30:50;101776.52;;;4.58;100.00
36964;BME280;22878;48.616;35.326;2022-12-26T06:33:17;101779.70;;;4.57;100.00
36964;BME280;22878;48.616;35.326;2022-12-26T06:35:44;101783.02;;;4.59;100.00
36964;BME280;22878;48.616;35.326;2022-12-26T06:38:10;101786.13;;;4.63;100.00
36964;BME280;22878;48.616;35.326;2022-12-26T06:43:07;101790.57;;;4.66;100.00
36964;BME280;22878;48.616;35.326;2022-12-26T06:45:34;101793.89;;;4.68;100.00
36964;BME280;22878;48.616;35.326;2022-12-26T06:48:01;101799.41;;;4.67;100.00
36964;BME280;22878;48.616;35.326;2022-12-26T06:50:27;101801.45;;;4.65;100.00
36964;BME280;22878;48.616;35.326;2022-12-26T06:52:55;101805.08;;;4.68;100.00
36964;BME280;22878;48.616;35.326;2022-12-26T06:55:22;101801.08;;;4.68;100.00
36964;BME280;22878;48.616;35.326;2022-12-26T07:05:09;101798.02;;;4.71;100.00
36964;BME280;22878;48.616;35.326;2022-12-26T07:07:35;101805.00;;;4.72;100.00
36964;BME280;22878;48.616;35.326;2022-12-26T07:10:02;101802.64;;;4.73;100.00
36964;BME280;22878;48.616;35.326;2022-12-26T07:12:28;101808.49;;;4.72;100.00
36964;BME280;22878;48.616;35.326;2022-12-26T07:14:54;101804.19;;;4.71;100.00
36964;BME280;22878;48.616;35.326;2022-12-26T07:17:21;101798.84;;;4.71;100.00
36964;BME280;22878;48.616;35.326;2022-12-26T07:19:47;101806.03;;;4.71;100.00
36964;BME280;22878;48.616;35.326;2022-12-26T07:22:13;101806.72;;;4.69;100.00
36964;BME280;22878;48.616;35.326;2022-12-26T07:24:39;101803.74;;;4.68;100.00
36964;BME280;22878;48.616;35.326;2022-12-26T07:27:06;101806.08;;;4.67;100.00
36964;BME280;22878;48.616;35.326;2022-12-26T07:29:32;101807.10;;;4.66;100.00
36964;BME280;22878;48.616;35.326;2022-12-26T07:31:58;101802.28;;;4.65;100.00
36964;BME280;22878;48.616;35.326;2022-12-26T07:34:25;101807.41;;;4.67;100.00
36964;BME280;22878;48.616;35.326;2022-12-26T07:36:52;101809.52;;;4.71;100.00
36964;BME280;22878;48.616;35.326;2022-12-26T07:39:18;101804.80;;;4.73;100.00
36964;BME280;22878;48.616;35.326;2022-12-26T07:41:45;101800.36;;;4.81;100.00
36964;BME280;22878;48.616;35.326;2022-12-26T07:44:25;101799.02;;;4.81;100.00
36964;BME280;22878;48.616;35.326;2022-12-26T07:46:55;101803.67;;;4.83;100.00
36964;BME280;22878;48.616;35.326;2022-12-26T07:49:22;101809.24;;;4.88;100.00
36964;BME280;22878;48.616;35.326;2022-12-26T07:51:49;101801.23;;;4.88;100.00
36964;BME280;22878;48.616;35.326;2022-12-26T07:54:17;101796.66;;;4.82;100.00
36964;BME280;22878;48.616;35.326;2022-12-26T07:56:44;101801.39;;;4.80;100.00
36964;BME280;22878;48.616;35.326;2022-12-26T07:59:15;101806.83;;;4.82;100.00
36964;BME280;22878;48.616;35.326;2022-12-26T08:04:46;101811.41;;;4.99;100.00
36964;BME280;22878;48.616;35.326;2022-12-26T08:07:13;101809.81;;;5.05;100.00
36964;BME280;22878;48.616;35.326;2022-12-26T08:09:39;101807.34;;;5.03;100.00
36964;BME280;22878;48.616;35.326;2022-12-26T08:12:07;101806.39;;;5.00;100.00
36964;BME280;22878;48.616;35.326;2022-12-26T08:14:36;101808.98;;;5.04;100.00
36964;BME280;22878;48.616;35.326;2022-12-26T08:17:02;101811.23;;;5.00;100.00
36964;BME280;22878;48.616;35.326;2022-12-26T08:19:29;101814.46;;;4.96;100.00
36964;BME280;22878;48.616;35.326;2022-12-26T08:21:55;101811.79;;;4.96;100.00
36964;BME280;22878;48.616;35.326;2022-12-26T08:24:21;101808.16;;;5.04;100.00
36964;BME280;22878;48.616;35.326;2022-12-26T08:26:48;101807.39;;;5.10;100.00
36964;BME280;22878;48.616;35.326;2022-12-26T08:29:14;101814.94;;;5.17;100.00
36964;BME280;22878;48.616;35.326;2022-12-26T08:31:40;101813.67;;;5.23;100.00
36964;BME280;22878;48.616;35.326;2022-12-26T08:34:07;101812.70;;;5.20;100.00
36964;BME280;22878;48.616;35.326;2022-12-26T08:36:34;101816.27;;;5.17;100.00
36964;BME280;22878;48.616;35.326;2022-12-26T08:39:00;101814.81;;;5.14;100.00
36964;BME280;22878;48.616;35.326;2022-12-26T08:41:27;101812.60;;;5.18;100.00
36964;BME280;22878;48.616;35.326;2022-12-26T08:43:53;101812.70;;;5.20;100.00
36964;BME280;22878;48.616;35.326;2022-12-26T08:46:20;101804.32;;;5.23;100.00
36964;BME280;22878;48.616;35.326;2022-12-26T08:48:48;101806.09;;;5.27;100.00
36964;BME280;22878;48.616;35.326;2022-12-26T08:51:17;101806.00;;;5.31;100.00
36964;BME280;22878;48.616;35.326;2022-12-26T08:53:46;101807.47;;;5.34;100.00
36964;BME280;22878;48.616;35.326;2022-12-26T08:58:45;101800.42;;;5.43;100.00
36964;BME280;22878;48.616;35.326;2022-12-26T09:01:17;101791.61;;;5.32;100.00
36964;BME280;22878;48.616;35.326;2022-12-26T09:03:46;101792.21;;;5.28;100.00
36964;BME280;22878;48.616;35.326;2022-12-26T09:06:14;101800.48;;;5.33;100.00
36964;BME280;22878;48.616;35.326;2022-12-26T09:08:41;101799.63;;;5.32;100.00
36964;BME280;22878;48.616;35.326;2022-12-26T09:11:13;101797.80;;;5.33;100.00
36964;BME280;22878;48.616;35.326;2022-12-26T09:13:44;101795.59;;;5.43;100.00
36964;BME280;22878;48.616;35.326;2022-12-26T09:16:20;101801.13;;;5.59;100.00
36964;BME280;22878;48.616;35.326;2022-12-26T09:18:54;101806.42;;;5.63;100.00
36964;BME280;22878;48.616;35.326;2022-12-26T09:21:21;101803.98;;;5.68;100.00
36964;BME280;22878;48.616;35.326;2022-12-26T09:23:48;101807.42;;;5.79;100.00
36964;BME280;22878;48.616;35.326;2022-12-26T09:26:16;101810.75;;;5.88;100.00
36964;BME280;22878;48.616;35.326;2022-12-26T09:32:25;101805.80;;;5.96;100.00
36964;BME280;22878;48.616;35.326;2022-12-26T09:34:51;101808.16;;;5.95;100.00
36964;BME280;22878;48.616;35.326;2022-12-26T09:37:18;101806.66;;;5.85;100.00
36964;BME280;22878;48.616;35.326;2022-12-26T09:39:44;101799.58;;;5.71;100.00
36964;BME280;22878;48.616;35.326;2022-12-26T09:42:32;101806.05;;;5.73;100.00
36964;BME280;22878;48.616;35.326;2022-12-26T09:45:15;101802.58;;;5.79;100.00
36964;BME280;22878;48.616;35.326;2022-12-26T09:50:36;101803.73;;;5.80;100.00
36964;BME280;22878;48.616;35.326;2022-12-26T09:53:12;101803.24;;;5.87;100.00
36964;BME280;22878;48.616;35.326;2022-12-26T09:58:32;101792.13;;;6.01;100.00
36964;BME280;22878;48.616;35.326;2022-12-26T10:01:22;101797.50;;;6.08;100.00
36964;BME280;22878;48.616;35.326;2022-12-26T10:03:53;101795.64;;;6.08;100.00
36964;BME280;22878;48.616;35.326;2022-12-26T10:06:26;101797.73;;;6.13;100.00
36964;BME280;22878;48.616;35.326;2022-12-26T10:17:41;101792.15;;;6.08;100.00
36964;BME280;22878;48.616;35.326;2022-12-26T10:23:58;101796.92;;;6.19;100.00
36964;BME280;22878;48.616;35.326;2022-12-26T10:30:13;101804.56;;;6.29;100.00
36964;BME280;22878;48.616;35.326;2022-12-26T10:32:47;101797.99;;;6.31;100.00
36964;BME280;22878;48.616;35.326;2022-12-26T10:38:36;101790.59;;;6.33;100.00
36964;BME280;22878;48.616;35.326;2022-12-26T10:41:08;101786.77;;;6.32;100.00
36964;BME280;22878;48.616;35.326;2022-12-26T10:43:37;101782.05;;;6.34;100.00
36964;BME280;22878;48.616;35.326;2022-12-26T10:49:23;101788.44;;;6.33;100.00
36964;BME280;22878;48.616;35.326;2022-12-26T10:51:53;101782.97;;;6.30;100.00
36964;BME280;22878;48.616;35.326;2022-12-26T10:54:21;101787.38;;;6.27;100.00
36964;BME280;22878;48.616;35.326;2022-12-26T10:56:49;101791.40;;;6.27;100.00
36964;BME280;22878;48.616;35.326;2022-12-26T11:01:50;101787.09;;;6.33;100.00
36964;BME280;22878;48.616;35.326;2022-12-26T11:04:22;101788.44;;;6.33;100.00
36964;BME280;22878;48.616;35.326;2022-12-26T11:06:52;101794.49;;;6.31;100.00
36964;BME280;22878;48.616;35.326;2022-12-26T11:09:34;101790.29;;;6.32;100.00
36964;BME280;22878;48.616;35.326;2022-12-26T11:14:46;101799.09;;;6.26;100.00
36964;BME280;22878;48.616;35.326;2022-12-26T11:17:27;101798.28;;;6.26;100.00
36964;BME280;22878;48.616;35.326;2022-12-26T11:22:45;101799.30;;;6.18;100.00
36964;BME280;22878;48.616;35.326;2022-12-26T11:25:21;101795.92;;;6.03;100.00
36964;BME280;22878;48.616;35.326;2022-12-26T11:27:51;101801.89;;;5.98;100.00
36964;BME280;22878;48.616;35.326;2022-12-26T11:30:28;101803.94;;;5.96;100.00
36964;BME280;22878;48.616;35.326;2022-12-26T11:33:19;101812.83;;;5.86;100.00
36964;BME280;22878;48.616;35.326;2022-12-26T11:35:51;101815.89;;;5.83;100.00
36964;BME280;22878;48.616;35.326;2022-12-26T11:38:22;101808.45;;;5.78;100.00
36964;BME280;22878;48.616;35.326;2022-12-26T11:41:02;101821.19;;;5.76;100.00
36964;BME280;22878;48.616;35.326;2022-12-26T11:43:39;101820.22;;;5.66;100.00
36964;BME280;22878;48.616;35.326;2022-12-26T11:46:05;101817.51;;;5.60;100.00
36964;BME280;22878;48.616;35.326;2022-12-26T11:48:31;101820.63;;;5.53;100.00
36964;BME280;22878;48.616;35.326;2022-12-26T11:50:58;101823.22;;;5.50;100.00
36964;BME280;22878;48.616;35.326;2022-12-26T11:53:24;101827.31;;;5.53;100.00
36964;BME280;22878;48.616;35.326;2022-12-26T11:59:31;101824.86;;;5.51;100.00
36964;BME280;22878;48.616;35.326;2022-12-26T12:02:18;101823.91;;;5.48;100.00
36964;BME280;22878;48.616;35.326;2022-12-26T12:05:03;101822.76;;;5.46;100.00
36964;BME280;22878;48.616;35.326;2022-12-26T12:25:27;101839.63;;;5.19;100.00
36964;BME280;22878;48.616;35.326;2022-12-26T12:43:41;101845.32;;;4.77;100.00
36964;BME280;22878;48.616;35.326;2022-12-26T13:01:43;101853.71;;;4.74;100.00
36964;BME280;22878;48.616;35.326;2022-12-26T13:04:16;101856.52;;;4.76;100.00
36964;BME280;22878;48.616;35.326;2022-12-26T13:06:48;101861.78;;;4.81;100.00
36964;BME280;22878;48.616;35.326;2022-12-26T13:09:21;101859.86;;;4.85;100.00
36964;BME280;22878;48.616;35.326;2022-12-26T17:06:37;101891.02;;;1.86;100.00
36964;BME280;22878;48.616;35.326;2022-12-26T17:09:11;101892.62;;;2.43;100.00
36964;BME280;22878;48.616;35.326;2022-12-26T17:11:53;101885.24;;;2.57;100.00
36964;BME280;22878;48.616;35.326;2022-12-26T17:14:37;101886.84;;;2.66;100.00
36964;BME280;22878;48.616;35.326;2022-12-26T17:17:07;101879.59;;;2.83;100.00
36964;BME280;22878;48.616;35.326;2022-12-26T17:26:25;101870.81;;;3.21;100.00
36964;BME280;22878;48.616;35.326;2022-12-26T17:28:53;101868.78;;;3.27;100.00
36964;BME280;22878;48.616;35.326;2022-12-26T17:31:32;101862.64;;;3.41;100.00
36964;BME280;22878;48.616;35.326;2022-12-26T17:34:03;101860.77;;;3.46;100.00
36964;BME280;22878;48.616;35.326;2022-12-26T17:36:39;101854.95;;;3.61;100.00
36964;BME280;22878;48.616;35.326;2022-12-26T17:39:10;101848.05;;;3.71;100.00
36964;BME280;22878;48.616;35.326;2022-12-26T17:41:54;101843.47;;;3.75;100.00
36964;BME280;22878;48.616;35.326;2022-12-26T17:47:16;101836.63;;;3.92;100.00
36964;BME280;22878;48.616;35.326;2022-12-26T17:49:43;101841.22;;;3.98;100.00
36964;BME280;22878;48.616;35.326;2022-12-26T17:52:11;101838.87;;;3.99;100.00
36964;BME280;22878;48.616;35.326;2022-12-26T17:54:38;101851.01;;;4.01;100.00
36964;BME280;22878;48.616;35.326;2022-12-26T18:00:45;101847.52;;;4.01;100.00
36964;BME280;22878;48.616;35.326;2022-12-26T18:03:11;101855.78;;;3.91;100.00
36964;BME280;22878;48.616;35.326;2022-12-26T18:05:38;101861.77;;;3.93;100.00
36964;BME280;22878;48.616;35.326;2022-12-26T18:08:05;101858.28;;;3.93;100.00
36964;BME280;22878;48.616;35.326;2022-12-26T18:10:34;101857.53;;;3.99;100.00
36964;BME280;22878;48.616;35.326;2022-12-26T18:13:02;101860.52;;;4.00;100.00
36964;BME280;22878;48.616;35.326;2022-12-26T18:15:29;101860.03;;;4.00;100.00
36964;BME280;22878;48.616;35.326;2022-12-26T18:17:56;101860.78;;;3.94;100.00
36964;BME280;22878;48.616;35.326;2022-12-26T18:20:26;101862.11;;;3.94;100.00
36964;BME280;22878;48.616;35.326;2022-12-26T18:22:54;101860.95;;;3.93;100.00
36964;BME280;22878;48.616;35.326;2022-12-26T18:25:23;101864.78;;;3.94;100.00
36964;BME280;22878;48.616;35.326;2022-12-26T18:27:50;101859.52;;;4.01;100.00
36964;BME280;22878;48.616;35.326;2022-12-26T18:30:20;101854.64;;;4.04;100.00
36964;BME280;22878;48.616;35.326;2022-12-26T18:32:49;101852.52;;;4.00;100.00
36964;BME280;22878;48.616;35.326;2022-12-26T18:35:17;101857.23;;;3.98;100.00
36964;BME280;22878;48.616;35.326;2022-12-26T18:37:50;101851.52;;;4.01;100.00
36964;BME280;22878;48.616;35.326;2022-12-26T18:40:38;101853.82;;;4.04;100.00
36964;BME280;22878;48.616;35.326;2022-12-26T18:43:07;101846.64;;;4.04;100.00
36964;BME280;22878;48.616;35.326;2022-12-26T18:45:34;101848.86;;;4.01;100.00
36964;BME280;22878;48.616;35.326;2022-12-26T18:48:02;101864.86;;;4.01;100.00
36964;BME280;22878;48.616;35.326;2022-12-26T18:50:30;101861.40;;;3.96;100.00
36964;BME280;22878;48.616;35.326;2022-12-26T18:52:57;101865.73;;;3.97;100.00
36964;BME280;22878;48.616;35.326;2022-12-26T18:55:24;101867.08;;;3.97;100.00
36964;BME280;22878;48.616;35.326;2022-12-26T18:57:52;101866.79;;;3.92;100.00
36964;BME280;22878;48.616;35.326;2022-12-26T19:00:19;101871.47;;;3.90;100.00
36964;BME280;22878;48.616;35.326;2022-12-26T19:06:28;101866.81;;;3.88;100.00
36964;BME280;22878;48.616;35.326;2022-12-26T19:08:57;101865.38;;;3.85;100.00
36964;BME280;22878;48.616;35.326;2022-12-26T19:11:23;101858.70;;;3.85;100.00
36964;BME280;22878;48.616;35.326;2022-12-26T19:13:49;101858.22;;;3.82;100.00
36964;BME280;22878;48.616;35.326;2022-12-26T19:16:16;101850.56;;;3.83;100.00
36964;BME280;22878;48.616;35.326;2022-12-26T19:18:42;101848.58;;;3.81;100.00
36964;BME280;22878;48.616;35.326;2022-12-26T19:21:12;101847.25;;;3.81;100.00
36964;BME280;22878;48.616;35.326;2022-12-26T19:23:41;101843.67;;;3.74;100.00
36964;BME280;22878;48.616;35.326;2022-12-26T19:26:11;101839.33;;;3.73;100.00
36964;BME280;22878;48.616;35.326;2022-12-26T19:28:39;101844.05;;;3.71;100.00
36964;BME280;22878;48.616;35.326;2022-12-26T19:31:11;101841.03;;;3.70;100.00
36964;BME280;22878;48.616;35.326;2022-12-26T19:33:40;101842.28;;;3.63;100.00
36964;BME280;22878;48.616;35.326;2022-12-26T19:36:07;101841.55;;;3.69;100.00
36964;BME280;22878;48.616;35.326;2022-12-26T19:38:33;101835.25;;;3.66;100.00
36964;BME280;22878;48.616;35.326;2022-12-26T19:41:08;101838.42;;;3.66;100.00
36964;BME280;22878;48.616;35.326;2022-12-26T19:47:16;101831.91;;;3.68;100.00
36964;BME280;22878;48.616;35.326;2022-12-26T19:49:43;101839.76;;;3.66;100.00
36964;BME280;22878;48.616;35.326;2022-12-26T19:52:10;101846.22;;;3.67;100.00
36964;BME280;22878;48.616;35.326;2022-12-26T19:54:37;101842.28;;;3.63;100.00
36964;BME280;22878;48.616;35.326;2022-12-26T19:57:04;101839.92;;;3.64;100.00
36964;BME280;22878;48.616;35.326;2022-12-26T19:59:30;101845.03;;;3.70;100.00
36964;BME280;22878;48.616;35.326;2022-12-26T20:01:57;101836.58;;;3.66;100.00
36964;BME280;22878;48.616;35.326;2022-12-26T20:08:07;101836.64;;;3.62;100.00
36964;BME280;22878;48.616;35.326;2022-12-26T20:10:35;101828.58;;;3.66;100.00
36964;BME280;22878;48.616;35.326;2022-12-26T20:13:02;101829.09;;;3.66;100.00
36964;BME280;22878;48.616;35.326;2022-12-26T20:15:33;101827.11;;;3.63;100.00
36964;BME280;22878;48.616;35.326;2022-12-26T20:17:59;101829.97;;;3.62;100.00
36964;BME280;22878;48.616;35.326;2022-12-26T20:20:25;101826.80;;;3.62;100.00
36964;BME280;22878;48.616;35.326;2022-12-26T20:22:53;101824.50;;;3.59;100.00
36964;BME280;22878;48.616;35.326;2022-12-26T20:25:21;101823.84;;;3.57;100.00
36964;BME280;22878;48.616;35.326;2022-12-26T20:27:48;101825.18;;;3.57;100.00
36964;BME280;22878;48.616;35.326;2022-12-26T20:30:14;101818.66;;;3.60;100.00
36964;BME280;22878;48.616;35.326;2022-12-26T20:32:44;101817.78;;;3.63;100.00
36964;BME280;22878;48.616;35.326;2022-12-26T20:35:12;101812.14;;;3.62;100.00
36964;BME280;22878;48.616;35.326;2022-12-26T20:37:39;101813.98;;;3.62;100.00
36964;BME280;22878;48.616;35.326;2022-12-26T20:40:08;101813.98;;;3.62;100.00